createdAt,value
2023-12-18T00:01:47.534Z,79
2023-12-18T00:03:49.682Z,79
2023-12-18T00:05:49.577Z,79
2023-12-18T00:07:50.589Z,79
2023-12-18T00:09:51.707Z,79
2023-12-18T00:11:52.529Z,79
2023-12-18T00:13:54.309Z,79
2023-12-18T00:15:54.708Z,79
2023-12-18T00:17:55.705Z,79
2023-12-18T00:19:56.595Z,79
2023-12-18T00:21:57.663Z,79
2023-12-18T00:23:58.580Z,79
2023-12-18T00:25:59.672Z,79
2023-12-18T00:28:00.595Z,79
2023-12-18T00:30:01.668Z,79
2023-12-18T00:32:02.628Z,79
2023-12-18T00:34:03.745Z,79
2023-12-18T00:36:04.576Z,79
2023-12-18T00:38:05.821Z,80
2023-12-18T00:40:06.599Z,80
2023-12-18T00:42:07.613Z,80
2023-12-18T00:44:08.540Z,80
2023-12-18T00:46:09.682Z,80
2023-12-18T00:48:10.717Z,80
2023-12-18T00:50:11.686Z,80
2023-12-18T00:52:12.600Z,80
2023-12-18T00:54:13.671Z,80
2023-12-18T00:56:14.553Z,80
2023-12-18T00:58:15.542Z,80
2023-12-18T01:00:16.659Z,80
2023-12-18T01:02:17.583Z,80
2023-12-18T01:04:18.824Z,80
2023-12-18T01:06:19.669Z,80
2023-12-18T01:08:20.676Z,80
2023-12-18T01:10:21.614Z,80
2023-12-18T01:12:22.684Z,80
2023-12-18T01:14:23.536Z,80
2023-12-18T01:16:24.586Z,80
2023-12-18T01:18:25.829Z,80
2023-12-18T01:22:27.684Z,80
2023-12-18T01:24:28.504Z,80
2023-12-18T01:26:29.708Z,80
2023-12-18T01:28:30.554Z,80
2023-12-18T01:30:31.694Z,79
2023-12-18T01:32:32.584Z,79
2023-12-18T01:34:33.796Z,79
2023-12-18T01:36:34.535Z,79
2023-12-18T01:38:35.582Z,79
2023-12-18T01:40:36.620Z,79
2023-12-18T01:42:37.640Z,79
2023-12-18T01:44:38.544Z,79
2023-12-18T01:46:39.689Z,79
2023-12-18T01:48:40.725Z,79
2023-12-18T01:50:41.705Z,79
2023-12-18T01:52:42.611Z,79
2023-12-18T01:54:43.681Z,80
2023-12-18T01:56:44.668Z,80
2023-12-18T01:58:45.595Z,80
2023-12-18T02:00:46.627Z,80
2023-12-18T02:02:47.623Z,80
2023-12-18T02:04:48.519Z,80
2023-12-18T02:06:49.588Z,80
2023-12-18T02:08:50.631Z,80
2023-12-18T02:10:51.553Z,80
2023-12-18T02:12:52.592Z,80
2023-12-18T02:14:53.522Z,80
2023-12-18T02:16:54.597Z,80
2023-12-18T02:18:55.699Z,80
2023-12-18T02:20:56.660Z,79
2023-12-18T02:22:57.584Z,79
2023-12-18T02:24:58.570Z,79
2023-12-18T02:26:59.794Z,79
2023-12-18T02:29:00.622Z,79
2023-12-18T02:31:01.672Z,79
2023-12-18T02:33:02.715Z,79
2023-12-18T02:35:03.684Z,79
2023-12-18T02:37:04.560Z,79
2023-12-18T02:39:05.762Z,79
2023-12-18T02:41:06.744Z,79
2023-12-18T02:43:07.616Z,79
2023-12-18T02:45:08.584Z,79
2023-12-18T02:47:09.609Z,79
2023-12-18T02:49:10.757Z,79
2023-12-18T02:51:11.628Z,78
2023-12-18T02:53:12.752Z,78
2023-12-18T02:55:13.611Z,78
2023-12-18T02:57:14.621Z,78
2023-12-18T02:59:15.699Z,77
2023-12-18T03:01:16.682Z,77
2023-12-18T03:03:17.570Z,77
2023-12-18T03:05:18.781Z,76
2023-12-18T03:07:19.586Z,76
2023-12-18T03:09:20.564Z,76
2023-12-18T03:11:21.607Z,76
2023-12-18T03:13:22.660Z,76
2023-12-18T03:15:23.582Z,76
2023-12-18T03:17:24.616Z,75
2023-12-18T03:19:25.566Z,75
2023-12-18T03:21:26.769Z,75
2023-12-18T03:23:27.526Z,75
2023-12-18T03:25:28.562Z,75
2023-12-18T03:27:29.649Z,75
2023-12-18T03:29:30.633Z,75
2023-12-18T03:31:31.573Z,75
2023-12-18T03:33:32.928Z,75
2023-12-18T03:35:33.611Z,75
2023-12-18T03:37:34.757Z,75
2023-12-18T03:39:35.745Z,75
2023-12-18T03:41:36.550Z,75
2023-12-18T03:43:37.679Z,75
2023-12-18T03:47:39.753Z,76
2023-12-18T03:49:40.618Z,76
2023-12-18T03:51:41.572Z,76
2023-12-18T03:53:42.584Z,77
2023-12-18T03:55:43.557Z,77
2023-12-18T03:57:44.909Z,77
2023-12-18T03:59:45.520Z,77
2023-12-18T04:01:46.566Z,77
2023-12-18T04:03:47.627Z,77
2023-12-18T04:05:48.631Z,77
2023-12-18T04:07:49.613Z,77
2023-12-18T04:09:50.688Z,78
2023-12-18T04:11:51.622Z,78
2023-12-18T04:13:52.616Z,78
2023-12-18T04:15:53.562Z,78
2023-12-18T04:17:54.861Z,78
2023-12-18T04:19:55.696Z,78
2023-12-18T04:21:56.694Z,78
2023-12-18T04:23:57.574Z,78
2023-12-18T04:25:58.551Z,78
2023-12-18T04:27:59.613Z,78
2023-12-18T04:30:00.717Z,78
2023-12-18T04:32:01.617Z,78
2023-12-18T04:34:02.816Z,78
2023-12-18T04:36:03.679Z,78
2023-12-18T04:38:04.567Z,78
2023-12-18T04:40:05.566Z,78
2023-12-18T04:42:06.607Z,78
2023-12-18T04:44:07.576Z,78
2023-12-18T04:46:08.586Z,79
2023-12-18T04:48:09.705Z,79
2023-12-18T04:50:10.580Z,79
2023-12-18T04:52:12.025Z,79
2023-12-18T04:54:12.787Z,79
2023-12-18T04:56:13.653Z,79
2023-12-18T04:58:14.549Z,79
2023-12-18T05:00:15.606Z,79
2023-12-18T05:02:16.545Z,79
2023-12-18T05:04:17.697Z,79
2023-12-18T05:06:18.600Z,78
2023-12-18T05:08:19.507Z,78
2023-12-18T05:10:20.581Z,78
2023-12-18T05:12:21.698Z,78
2023-12-18T05:14:22.618Z,78
2023-12-18T05:16:23.531Z,79
2023-12-18T05:18:24.954Z,79
2023-12-18T05:20:25.620Z,79
2023-12-18T05:22:26.611Z,79
2023-12-18T05:24:27.585Z,79
2023-12-18T05:26:28.654Z,79
2023-12-18T05:28:29.548Z,79
2023-12-18T05:30:30.647Z,80
2023-12-18T05:32:31.621Z,80
2023-12-18T05:34:32.611Z,80
2023-12-18T05:36:33.768Z,80
2023-12-18T05:38:34.597Z,80
2023-12-18T05:40:35.557Z,80
2023-12-18T05:42:36.750Z,80
2023-12-18T05:44:37.638Z,81
2023-12-18T05:46:38.612Z,81
2023-12-18T05:48:39.627Z,81
2023-12-18T05:50:40.880Z,81
2023-12-18T05:52:41.840Z,81
2023-12-18T05:54:42.572Z,81
2023-12-18T05:56:43.615Z,81
2023-12-18T05:58:44.626Z,81
2023-12-18T06:00:45.574Z,81
2023-12-18T06:02:47.591Z,80
2023-12-18T06:04:47.680Z,80
2023-12-18T06:06:48.799Z,80
2023-12-18T06:08:49.663Z,80
2023-12-18T06:10:50.589Z,80
2023-12-18T06:12:51.666Z,80
2023-12-18T06:14:52.598Z,80
2023-12-18T06:16:53.594Z,80
2023-12-18T06:18:54.618Z,80
2023-12-18T06:20:55.650Z,79
2023-12-18T06:22:56.574Z,79
2023-12-18T06:24:57.558Z,79
2023-12-18T06:26:58.534Z,79
2023-12-18T06:28:59.855Z,79
2023-12-18T06:31:00.666Z,79
2023-12-18T06:33:01.750Z,80
2023-12-18T06:35:02.674Z,80
2023-12-18T06:37:03.651Z,80
2023-12-18T06:39:04.894Z,80
2023-12-18T06:41:05.632Z,80
2023-12-18T06:43:06.613Z,81
2023-12-18T06:45:07.568Z,81
2023-12-18T06:47:08.569Z,81
2023-12-18T06:49:09.685Z,81
2023-12-18T06:51:10.569Z,81
2023-12-18T06:53:11.711Z,81
2023-12-18T06:55:12.577Z,81
2023-12-18T06:57:13.726Z,81
2023-12-18T06:59:14.765Z,81
2023-12-18T07:01:15.620Z,81
2023-12-18T07:03:16.621Z,81
2023-12-18T07:05:17.677Z,81
2023-12-18T07:07:18.763Z,81
2023-12-18T07:09:19.682Z,81
2023-12-18T07:11:20.834Z,81
2023-12-18T07:13:21.577Z,81
2023-12-18T07:15:22.587Z,81
2023-12-18T07:17:23.611Z,81
2023-12-18T07:19:24.779Z,81
2023-12-18T07:21:25.652Z,81
2023-12-18T07:23:26.894Z,82
2023-12-18T07:25:27.570Z,82
2023-12-18T07:27:28.667Z,82
2023-12-18T07:29:29.625Z,82
2023-12-18T07:31:30.688Z,82
2023-12-18T07:33:31.762Z,82
2023-12-18T07:35:32.821Z,82
2023-12-18T07:37:33.552Z,82
2023-12-18T07:39:34.631Z,82
2023-12-18T07:41:35.587Z,82
2023-12-18T07:43:36.571Z,81
2023-12-18T07:45:37.673Z,80
2023-12-18T07:47:38.748Z,80
2023-12-18T07:49:39.944Z,79
2023-12-18T07:51:40.582Z,78
2023-12-18T07:53:41.825Z,77
2023-12-18T07:55:42.533Z,75
2023-12-18T07:57:43.942Z,74
2023-12-18T07:59:44.610Z,73
2023-12-18T08:01:45.583Z,73
2023-12-18T08:03:46.672Z,72
2023-12-18T08:05:47.554Z,71
2023-12-18T08:07:49.216Z,70
2023-12-18T08:09:49.677Z,69
2023-12-18T08:11:50.583Z,69
2023-12-18T08:13:51.651Z,68
2023-12-18T08:15:52.757Z,68
2023-12-18T08:17:53.731Z,68
2023-12-18T08:19:54.741Z,67
2023-12-18T08:21:55.936Z,67
2023-12-18T08:23:56.599Z,67
2023-12-18T08:25:57.615Z,67
2023-12-18T08:27:58.880Z,67
2023-12-18T08:29:59.570Z,66
2023-12-18T08:32:01.460Z,66
2023-12-18T08:34:02.082Z,66
2023-12-18T08:36:02.941Z,65
2023-12-18T08:38:03.749Z,65
2023-12-18T08:40:04.831Z,65
2023-12-18T08:42:05.941Z,64
2023-12-18T08:44:06.875Z,64
2023-12-18T08:46:07.873Z,64
2023-12-18T08:48:08.597Z,63
2023-12-18T08:50:09.653Z,63
2023-12-18T08:52:10.655Z,63
2023-12-18T08:54:11.679Z,63
2023-12-18T08:56:12.850Z,62
2023-12-18T08:58:13.593Z,62
2023-12-18T09:00:14.655Z,62
2023-12-18T09:02:15.686Z,62
2023-12-18T09:04:16.848Z,61
2023-12-18T09:06:17.566Z,61
2023-12-18T09:08:18.609Z,61
2023-12-18T09:10:19.645Z,61
2023-12-18T09:12:20.619Z,60
2023-12-18T09:14:21.673Z,60
2023-12-18T09:16:22.633Z,60
2023-12-18T09:18:23.767Z,60
2023-12-18T09:20:24.594Z,60
2023-12-18T09:22:25.744Z,59
2023-12-18T09:24:27.198Z,59
2023-12-18T09:26:27.677Z,59
2023-12-18T09:28:28.538Z,59
2023-12-18T09:30:29.675Z,59
2023-12-18T09:32:30.682Z,58
2023-12-18T09:34:31.639Z,58
2023-12-18T09:36:32.833Z,57
2023-12-18T09:38:33.567Z,57
2023-12-18T09:40:34.572Z,55
2023-12-18T09:42:35.603Z,52
2023-12-18T09:44:36.532Z,49
2023-12-18T09:46:37.514Z,46
2023-12-18T09:48:38.602Z,43
2023-12-18T09:50:39.658Z,40
2023-12-18T09:52:40.700Z,39
2023-12-18T09:54:41.762Z,37
2023-12-18T09:56:42.670Z,37
2023-12-18T09:58:43.518Z,36
2023-12-18T10:00:44.713Z,35
2023-12-18T10:02:45.710Z,34
2023-12-18T10:04:46.568Z,34
2023-12-18T10:06:47.539Z,34
2023-12-18T10:08:48.454Z,35
2023-12-18T10:10:49.712Z,35
2023-12-18T10:12:50.579Z,35
2023-12-18T10:14:51.504Z,34
2023-12-18T10:16:52.585Z,33
2023-12-18T10:18:53.572Z,32
2023-12-18T10:20:54.567Z,31
2023-12-18T10:22:55.674Z,31
2023-12-18T10:24:56.566Z,32
2023-12-18T10:26:57.561Z,33
2023-12-18T10:28:58.485Z,36
2023-12-18T10:30:59.638Z,40
2023-12-18T10:33:00.503Z,42
2023-12-18T10:35:01.525Z,43
2023-12-18T10:37:02.510Z,43
2023-12-18T10:39:03.506Z,42
2023-12-18T10:41:04.542Z,39
2023-12-18T10:43:05.490Z,37
2023-12-18T10:45:06.664Z,36
2023-12-18T10:47:07.742Z,36
2023-12-18T10:49:08.744Z,37
2023-12-18T10:51:09.525Z,38
2023-12-18T10:53:10.465Z,40
2023-12-18T10:55:11.701Z,42
2023-12-18T10:57:12.476Z,44
2023-12-18T10:59:13.457Z,45
2023-12-18T11:01:14.620Z,46
2023-12-18T11:03:15.602Z,48
2023-12-18T11:05:16.476Z,48
2023-12-18T11:07:17.713Z,49
2023-12-18T11:09:18.490Z,50
2023-12-18T11:11:19.536Z,50
2023-12-18T11:13:20.439Z,50
2023-12-18T11:15:21.525Z,49
2023-12-18T11:17:22.499Z,49
2023-12-18T11:19:26.615Z,49
2023-12-18T11:21:24.435Z,49
2023-12-18T11:23:25.445Z,49
2023-12-18T11:25:26.478Z,49
2023-12-18T11:27:27.461Z,49
2023-12-18T11:29:28.517Z,49
2023-12-18T11:31:29.535Z,49
2023-12-18T11:33:36.044Z,48
2023-12-18T11:35:31.448Z,48
2023-12-18T11:37:32.504Z,48
2023-12-18T11:39:33.505Z,47
2023-12-18T11:41:34.471Z,47
2023-12-18T11:43:35.454Z,47
2023-12-18T11:45:36.706Z,47
2023-12-18T11:47:37.539Z,48
2023-12-18T11:49:38.679Z,48
2023-12-18T11:51:39.428Z,48
2023-12-18T11:53:40.448Z,48
2023-12-18T11:55:41.421Z,48
2023-12-18T11:57:42.571Z,48
2023-12-18T11:59:43.546Z,48
2023-12-18T12:01:44.501Z,48
2023-12-18T12:05:46.527Z,48
2023-12-18T12:07:47.945Z,48
2023-12-18T12:09:48.390Z,48
2023-12-18T12:11:49.428Z,48
2023-12-18T12:13:50.413Z,48
2023-12-18T12:15:51.400Z,47
2023-12-18T12:17:52.415Z,47
2023-12-18T12:19:53.489Z,47
2023-12-18T12:21:54.483Z,46
2023-12-18T12:23:55.427Z,45
2023-12-18T12:25:56.425Z,45
2023-12-18T12:27:57.627Z,44
2023-12-18T12:29:58.462Z,43
2023-12-18T12:32:03.562Z,43
2023-12-18T12:34:00.541Z,43
2023-12-18T12:36:01.453Z,44
2023-12-18T12:38:02.860Z,44
2023-12-18T12:40:03.379Z,45
2023-12-18T12:42:04.383Z,45
2023-12-18T12:44:05.409Z,45
2023-12-18T12:46:06.457Z,45
2023-12-18T12:48:07.634Z,45
2023-12-18T12:50:08.388Z,45
2023-12-18T12:52:09.467Z,46
2023-12-18T12:54:10.480Z,46
2023-12-18T12:56:11.632Z,46
2023-12-18T12:58:12.315Z,46
2023-12-18T13:00:13.444Z,46
2023-12-18T13:02:14.469Z,46
2023-12-18T13:04:15.525Z,46
2023-12-18T13:06:16.538Z,46
2023-12-18T13:08:17.490Z,46
2023-12-18T13:10:18.412Z,46
2023-12-18T13:12:19.517Z,46
2023-12-18T13:14:20.447Z,46
2023-12-18T13:16:21.344Z,46
2023-12-18T13:18:22.562Z,46
2023-12-18T13:20:27.081Z,46
2023-12-18T13:22:24.371Z,46
2023-12-18T13:24:25.410Z,46
2023-12-18T13:26:26.407Z,46
2023-12-18T13:28:27.320Z,46
2023-12-18T13:30:28.414Z,46
2023-12-18T13:32:29.481Z,47
2023-12-18T13:34:30.439Z,47
2023-12-18T13:36:31.428Z,47
2023-12-18T13:38:32.344Z,47
2023-12-18T13:40:33.452Z,47
2023-12-18T13:42:34.397Z,47
2023-12-18T13:44:35.386Z,47
2023-12-18T13:46:36.348Z,47
2023-12-18T13:48:37.360Z,47
2023-12-18T13:50:38.315Z,47
2023-12-18T13:52:39.443Z,47
2023-12-18T13:54:40.395Z,47
2023-12-18T13:56:41.341Z,47
2023-12-18T13:58:42.335Z,48
2023-12-18T14:00:43.364Z,48
2023-12-18T14:02:44.462Z,48
2023-12-18T14:04:45.366Z,48
2023-12-18T14:06:46.419Z,48
2023-12-18T14:08:47.545Z,48
2023-12-18T14:10:48.328Z,48
2023-12-18T14:12:49.658Z,48
2023-12-18T14:14:50.333Z,48
2023-12-18T14:16:51.463Z,48
2023-12-18T14:18:52.349Z,48
2023-12-18T14:20:53.438Z,48
2023-12-18T14:22:54.383Z,48
2023-12-18T14:24:55.337Z,48
2023-12-18T14:26:56.305Z,48
2023-12-18T14:28:57.394Z,48
2023-12-18T14:30:58.400Z,49
2023-12-18T14:32:59.464Z,50
2023-12-18T14:35:00.684Z,50
2023-12-18T14:37:01.393Z,51
2023-12-18T14:39:02.382Z,52
2023-12-18T14:41:05.117Z,52
2023-12-18T14:43:04.571Z,53
2023-12-18T14:45:05.403Z,54
2023-12-18T14:47:06.375Z,54
2023-12-18T14:49:07.422Z,55
2023-12-18T14:51:08.373Z,56
2023-12-18T14:53:09.311Z,56
2023-12-18T14:55:10.619Z,57
2023-12-18T14:57:11.278Z,58
2023-12-18T14:59:12.334Z,58
2023-12-18T15:01:13.390Z,59
2023-12-18T15:03:15.374Z,59
2023-12-18T15:05:15.285Z,60
2023-12-18T15:07:16.379Z,60
2023-12-18T15:09:17.371Z,61
2023-12-18T15:11:18.292Z,61
2023-12-18T15:13:20.637Z,61
2023-12-18T15:15:20.583Z,61
2023-12-18T15:17:21.342Z,62
2023-12-18T15:19:22.421Z,62
2023-12-18T15:21:23.693Z,62
2023-12-18T15:23:24.301Z,62
2023-12-18T15:25:25.576Z,62
2023-12-18T15:27:26.350Z,62
2023-12-18T15:29:27.346Z,62
2023-12-18T15:31:28.423Z,62
2023-12-18T15:33:29.657Z,63
2023-12-18T15:35:30.477Z,63
2023-12-18T15:37:31.285Z,63
2023-12-18T15:39:32.332Z,63
2023-12-18T15:41:33.356Z,63
2023-12-18T15:43:34.282Z,63
2023-12-18T15:45:35.372Z,63
2023-12-18T15:47:36.455Z,63
2023-12-18T15:49:37.360Z,63
2023-12-18T15:51:38.316Z,63
2023-12-18T15:53:39.347Z,63
2023-12-18T15:55:40.437Z,64
2023-12-18T15:57:41.424Z,64
2023-12-18T15:59:42.391Z,64
2023-12-18T16:01:43.254Z,64
2023-12-18T16:03:44.420Z,64
2023-12-18T16:05:45.294Z,65
2023-12-18T16:07:46.561Z,65
2023-12-18T16:09:47.455Z,65
2023-12-18T16:11:48.518Z,65
2023-12-18T16:13:49.852Z,65
2023-12-18T16:15:50.401Z,65
2023-12-18T16:17:51.457Z,64
2023-12-18T16:19:52.234Z,64
2023-12-18T16:21:53.482Z,64
2023-12-18T16:23:54.414Z,64
2023-12-18T16:25:55.336Z,64
2023-12-18T16:27:56.367Z,64
2023-12-18T16:29:57.252Z,64
2023-12-18T16:31:58.336Z,64
2023-12-18T16:33:59.381Z,64
2023-12-18T16:36:00.477Z,64
2023-12-18T16:38:01.372Z,64
2023-12-18T16:40:02.288Z,64
2023-12-18T16:42:03.261Z,64
2023-12-18T16:44:04.350Z,64
2023-12-18T16:46:05.540Z,64
2023-12-18T16:48:06.494Z,64
2023-12-18T16:50:07.309Z,64
2023-12-18T16:52:08.329Z,64
2023-12-18T16:54:09.393Z,64
2023-12-18T16:56:10.309Z,64
2023-12-18T16:58:11.284Z,64
2023-12-18T17:00:13.183Z,64
2023-12-18T17:02:14.470Z,63
2023-12-18T17:04:14.331Z,63
2023-12-18T17:06:15.429Z,63
2023-12-18T17:08:16.290Z,63
2023-12-18T17:10:17.277Z,63
2023-12-18T17:12:18.403Z,63
2023-12-18T17:14:19.328Z,63
2023-12-18T17:16:20.427Z,63
2023-12-18T17:18:21.639Z,63
2023-12-18T17:20:22.342Z,63
2023-12-18T17:22:23.289Z,63
2023-12-18T17:24:24.365Z,63
2023-12-18T17:26:25.429Z,63
2023-12-18T17:28:26.275Z,63
2023-12-18T17:30:27.288Z,63
2023-12-18T17:32:29.513Z,63
2023-12-18T17:34:29.324Z,63
2023-12-18T17:36:31.327Z,63
2023-12-18T17:38:31.331Z,63
2023-12-18T17:40:32.267Z,63
2023-12-18T17:42:33.998Z,63
2023-12-18T17:44:34.391Z,63
2023-12-18T17:46:35.257Z,63
2023-12-18T17:48:36.373Z,63
2023-12-18T17:50:37.223Z,63
2023-12-18T17:52:38.306Z,63
2023-12-18T17:54:39.293Z,63
2023-12-18T17:56:40.248Z,63
2023-12-18T17:58:41.227Z,63
2023-12-18T18:00:42.387Z,63
2023-12-18T18:02:43.449Z,63
2023-12-18T18:04:44.422Z,63
2023-12-18T18:06:45.399Z,63
2023-12-18T18:08:46.232Z,63
2023-12-18T18:10:47.296Z,63
2023-12-18T18:12:48.268Z,63
2023-12-18T18:14:49.302Z,63
2023-12-18T18:16:50.261Z,63
2023-12-18T18:18:51.389Z,63
2023-12-18T18:20:52.255Z,63
2023-12-18T18:22:53.319Z,63
2023-12-18T18:24:54.464Z,63
2023-12-18T18:27:07.680Z,63
2023-12-18T18:28:56.193Z,63
2023-12-18T18:30:57.476Z,62
2023-12-18T18:32:58.608Z,62
2023-12-18T18:34:59.294Z,62
2023-12-18T18:37:00.309Z,62
2023-12-18T18:39:01.491Z,62
2023-12-18T18:41:02.259Z,62
2023-12-18T18:43:03.316Z,62
2023-12-18T18:45:04.288Z,61
2023-12-18T18:47:05.447Z,61
2023-12-18T18:49:06.360Z,61
2023-12-18T18:51:07.253Z,61
2023-12-18T18:53:08.210Z,61
2023-12-18T18:55:09.267Z,61
2023-12-18T18:57:10.227Z,61
2023-12-18T18:59:11.279Z,61
2023-12-18T19:01:12.413Z,61
2023-12-18T19:03:16.967Z,61
2023-12-18T19:05:14.402Z,61
2023-12-18T19:07:15.253Z,61
2023-12-18T19:09:16.386Z,61
2023-12-18T19:11:17.268Z,61
2023-12-18T19:13:19.191Z,62
2023-12-18T19:15:19.425Z,62
2023-12-18T19:17:20.615Z,62
2023-12-18T19:19:22.048Z,62
2023-12-18T19:21:22.331Z,62
2023-12-18T19:23:23.383Z,62
2023-12-18T19:25:24.293Z,63
2023-12-18T19:27:25.404Z,63
2023-12-18T19:29:26.634Z,63
2023-12-18T19:31:27.318Z,62
2023-12-18T19:33:28.322Z,62
2023-12-18T19:35:29.355Z,62
2023-12-18T19:37:30.332Z,62
2023-12-18T19:39:31.408Z,62
2023-12-18T19:41:32.349Z,62
2023-12-18T19:43:33.219Z,62
2023-12-18T19:45:34.375Z,62
2023-12-18T19:47:35.296Z,62
2023-12-18T19:49:36.346Z,62
2023-12-18T19:51:37.227Z,62
2023-12-18T19:53:38.267Z,62
2023-12-18T19:55:39.290Z,62
2023-12-18T19:57:40.412Z,61
2023-12-18T19:59:41.243Z,61
2023-12-18T20:01:42.245Z,61
2023-12-18T20:03:43.267Z,61
2023-12-18T20:05:44.271Z,61
2023-12-18T20:07:45.420Z,61
2023-12-18T20:09:46.365Z,61
2023-12-18T20:11:47.352Z,61
2023-12-18T20:13:48.223Z,61
2023-12-18T20:15:49.497Z,61
2023-12-18T20:17:50.290Z,61
2023-12-18T20:19:51.308Z,61
2023-12-18T20:21:52.285Z,61
2023-12-18T20:23:53.412Z,61
2023-12-18T20:25:54.310Z,62
2023-12-18T20:27:55.329Z,62
2023-12-18T20:29:56.477Z,62
2023-12-18T20:31:57.343Z,63
2023-12-18T20:33:58.423Z,63
2023-12-18T20:35:59.363Z,63
2023-12-18T20:38:00.256Z,64
2023-12-18T20:40:01.359Z,64
2023-12-18T20:42:02.274Z,64
2023-12-18T20:44:03.321Z,64
2023-12-18T20:46:04.447Z,65
2023-12-18T20:48:05.377Z,65
2023-12-18T20:50:06.440Z,65
2023-12-18T20:52:07.287Z,65
2023-12-18T20:54:08.292Z,65
2023-12-18T20:56:11.075Z,65
2023-12-18T20:58:10.288Z,64
2023-12-18T21:00:19.364Z,64
2023-12-18T21:02:12.261Z,64
2023-12-18T21:04:13.414Z,64
2023-12-18T21:06:14.251Z,64
2023-12-18T21:08:15.238Z,64
2023-12-18T21:10:16.241Z,64
2023-12-18T21:12:17.426Z,64
2023-12-18T21:14:22.907Z,64
2023-12-18T21:16:19.276Z,64
2023-12-18T21:18:20.260Z,64
2023-12-18T21:20:21.285Z,64
2023-12-18T21:22:22.289Z,64
2023-12-18T21:24:23.375Z,63
2023-12-18T21:26:24.273Z,63
2023-12-18T21:30:26.668Z,63
2023-12-18T21:32:27.444Z,63
2023-12-18T21:34:28.681Z,62
2023-12-18T21:36:29.217Z,62
2023-12-18T21:38:30.245Z,62
2023-12-18T21:40:31.234Z,62
2023-12-18T21:42:32.375Z,62
2023-12-18T21:44:33.329Z,62
2023-12-18T21:46:34.763Z,62
2023-12-18T21:48:35.460Z,62
2023-12-18T21:50:36.721Z,62
2023-12-18T21:52:37.413Z,61
2023-12-18T21:54:38.486Z,61
2023-12-18T21:56:39.247Z,61
2023-12-18T21:58:40.292Z,61
2023-12-18T22:00:41.471Z,61
2023-12-18T22:02:42.545Z,61
2023-12-18T22:04:43.363Z,61
2023-12-18T22:06:44.347Z,61
2023-12-18T22:08:45.251Z,61
2023-12-18T22:10:46.231Z,61
2023-12-18T22:12:47.762Z,61
2023-12-18T22:14:48.282Z,61
2023-12-18T22:16:49.322Z,61
2023-12-18T22:18:50.341Z,60
2023-12-18T22:20:54.096Z,60
2023-12-18T22:22:52.261Z,60
2023-12-18T22:24:53.372Z,60
2023-12-18T22:26:54.424Z,60
2023-12-18T22:28:55.288Z,61
2023-12-18T22:30:56.524Z,61
2023-12-18T22:32:57.301Z,61
2023-12-18T22:34:58.511Z,61
2023-12-18T22:36:59.392Z,61
2023-12-18T22:39:05.481Z,61
2023-12-18T22:41:01.316Z,61
2023-12-18T22:43:02.299Z,61
2023-12-18T22:45:03.329Z,61
2023-12-18T22:47:04.261Z,61
2023-12-18T22:49:05.323Z,61
2023-12-18T22:51:07.408Z,61
2023-12-18T22:53:07.243Z,61
2023-12-18T22:55:08.318Z,61
2023-12-18T22:57:09.201Z,61
2023-12-18T22:59:10.362Z,60
2023-12-18T23:01:11.525Z,60
2023-12-18T23:03:12.348Z,60
2023-12-18T23:05:13.514Z,60
2023-12-18T23:07:14.290Z,60
2023-12-18T23:09:15.216Z,60
2023-12-18T23:11:16.313Z,60
2023-12-18T23:13:17.370Z,60
2023-12-18T23:15:18.270Z,59
2023-12-18T23:17:19.291Z,59
2023-12-18T23:19:20.339Z,59
2023-12-18T23:21:21.349Z,59
2023-12-18T23:23:22.342Z,59
2023-12-18T23:25:23.384Z,59
2023-12-18T23:27:24.257Z,59
2023-12-18T23:29:25.365Z,59
2023-12-18T23:31:26.312Z,59
2023-12-18T23:33:30.586Z,59
2023-12-18T23:35:28.302Z,59
2023-12-18T23:37:30.262Z,59
2023-12-18T23:39:30.340Z,59
2023-12-18T23:41:31.309Z,59
2023-12-18T23:43:32.422Z,59
2023-12-18T23:45:33.294Z,59
2023-12-18T23:47:34.394Z,58
2023-12-18T23:49:35.308Z,58
2023-12-18T23:51:36.239Z,58
2023-12-18T23:53:37.264Z,58
2023-12-18T23:55:38.344Z,58
2023-12-18T23:57:39.441Z,58
2023-12-18T23:59:40.269Z,58
